Time;durP1;ratioP1;P1;durP2;ratioP2;P2;SDS_P1;SDS_P2;PMS_P1;PMS_P2;Temp;Humidity;BMP_temperature;BMP_pressure;BME280_temperature;BME280_humidity;BME280_pressure;Samples;Min_cycle;Max_cycle;Signal;HPM_P1;HPM_P2
2021/07/01 00:01:35;;;;;;;2.90;1.25;;;19.30;67.10;;;;;;5013039;28;20057;-84
2021/07/01 00:04:01;;;;;;;1.20;0.88;;;19.30;67.30;;;;;;5013900;28;20050;-83
2021/07/01 00:06:27;;;;;;;4.47;1.83;;;19.20;67.30;;;;;;5014368;28;20377;-83
2021/07/01 00:08:53;;;;;;;2.78;1.15;;;19.20;67.30;;;;;;5030095;28;20040;-84
2021/07/01 00:11:19;;;;;;;1.13;0.63;;;19.20;67.40;;;;;;5029573;28;20030;-83
2021/07/01 00:13:45;;;;;;;1.77;1.00;;;19.20;67.50;;;;;;5030221;28;20030;-83
2021/07/01 00:16:12;;;;;;;5.95;1.52;;;19.20;67.50;;;;;;5029338;28;20030;-85
2021/07/01 00:18:38;;;;;;;1.98;0.90;;;19.20;67.60;;;;;;5015555;28;20030;-83
2021/07/01 00:21:04;;;;;;;1.92;1.38;;;19.20;67.60;;;;;;5030096;28;20039;-84
2021/07/01 00:23:30;;;;;;;2.53;1.08;;;19.10;67.70;;;;;;5029748;28;20101;-82
2021/07/01 00:25:56;;;;;;;1.80;1.00;;;19.10;67.70;;;;;;5029740;28;20399;-83
2021/07/01 00:28:22;;;;;;;2.10;1.05;;;19.20;67.80;;;;;;5029594;28;20037;-83
2021/07/01 00:30:48;;;;;;;3.00;2.35;;;19.10;67.70;;;;;;5013966;28;20045;-84
2021/07/01 00:33:14;;;;;;;1.77;1.08;;;19.10;67.80;;;;;;5013629;28;20057;-83
2021/07/01 00:35:41;;;;;;;1.13;0.63;;;19.10;67.80;;;;;;5010096;28;20035;-84
2021/07/01 00:38:07;;;;;;;2.50;1.35;;;19.00;67.80;;;;;;5005728;28;20038;-83
2021/07/01 00:40:33;;;;;;;1.08;0.63;;;19.00;67.90;;;;;;5029178;28;20044;-83
2021/07/01 00:42:59;;;;;;;2.22;1.25;;;19.00;68.00;;;;;;5029705;28;20034;-82
2021/07/01 00:45:25;;;;;;;2.28;1.30;;;19.00;68.10;;;;;;5007692;28;20435;-84
2021/07/01 00:47:51;;;;;;;1.98;1.08;;;18.90;68.10;;;;;;5010473;28;20400;-83
2021/07/01 00:50:18;;;;;;;0.95;0.55;;;18.90;68.20;;;;;;5029179;28;20038;-85
2021/07/01 00:52:44;;;;;;;1.48;1.08;;;18.90;68.30;;;;;;5029285;28;20022;-84
2021/07/01 00:55:11;;;;;;;2.10;0.98;;;18.90;68.30;;;;;;5028163;28;20037;-85
2021/07/01 00:57:37;;;;;;;2.72;1.30;;;18.80;68.30;;;;;;5014701;28;20026;-84
2021/07/01 01:00:08;;;;;;;2.97;1.17;;;18.80;68.30;;;;;;5008765;28;20374;-86
2021/07/01 01:02:34;;;;;;;2.17;1.27;;;18.80;68.40;;;;;;5009057;28;20033;-85
2021/07/01 01:05:00;;;;;;;1.40;0.93;;;18.80;68.40;;;;;;5028821;28;20038;-82
2021/07/01 01:07:26;;;;;;;3.70;1.25;;;18.80;68.40;;;;;;5013842;28;20033;-84
2021/07/01 01:09:52;;;;;;;1.63;1.05;;;18.80;68.50;;;;;;5028838;28;20392;-85
2021/07/01 01:12:18;;;;;;;2.10;1.33;;;18.70;68.50;;;;;;5012655;28;20044;-84
2021/07/01 01:14:44;;;;;;;1.75;1.20;;;18.70;68.60;;;;;;5011842;28;20037;-84
2021/07/01 01:17:11;;;;;;;2.85;1.70;;;18.70;68.60;;;;;;5013037;28;20034;-85
2021/07/01 01:19:37;;;;;;;1.55;0.85;;;18.70;68.70;;;;;;5028596;28;20030;-84
2021/07/01 01:22:03;;;;;;;3.13;1.40;;;18.70;68.80;;;;;;5013543;28;20488;-83
2021/07/01 01:24:33;;;;;;;0.90;0.63;;;18.70;68.80;;;;;;5013515;28;20476;-83
2021/07/01 01:26:59;;;;;;;2.40;1.48;;;18.60;68.70;;;;;;5028516;28;20040;-82
2021/07/01 01:29:25;;;;;;;4.72;2.90;;;18.60;68.80;;;;;;5028307;28;20069;-84
2021/07/01 01:31:51;;;;;;;40.90;1.98;;;18.60;68.80;;;;;;5012745;28;20030;-84
2021/07/01 01:34:17;;;;;;;72.55;4.80;;;18.60;68.90;;;;;;5028479;28;20033;-84
2021/07/01 01:36:43;;;;;;;0.15;0.15;;;18.60;68.90;;;;;;5028994;28;20109;-84
2021/07/01 01:39:10;;;;;;;0.52;0.20;;;18.50;68.80;;;;;;5027939;28;20032;-83
2021/07/01 01:41:36;;;;;;;0.10;0.10;;;18.50;68.90;;;;;;5028166;28;20037;-84
2021/07/01 01:44:02;;;;;;;0.57;0.47;;;18.50;68.90;;;;;;5012919;28;20042;-84
2021/07/01 01:46:38;;;;;;;0.63;0.43;;;18.50;69.00;;;;;;5012621;28;20484;-84
2021/07/01 01:49:05;;;;;;;0.10;0.10;;;18.50;69.10;;;;;;5028433;28;20026;-84
2021/07/01 01:51:31;;;;;;;0.20;0.20;;;18.50;69.10;;;;;;5012360;28;20057;-84
2021/07/01 01:53:58;;;;;;;0.55;0.43;;;18.40;69.20;;;;;;5007989;28;20488;-84
2021/07/01 01:56:24;;;;;;;0.47;0.47;;;18.40;69.30;;;;;;5005528;28;20034;-85
2021/07/01 01:58:50;;;;;;;0.20;0.17;;;18.40;69.30;;;;;;5028056;28;20052;-86
2021/07/01 02:01:16;;;;;;;1.45;0.75;;;18.30;69.30;;;;;;5012365;28;20048;-83
2021/07/01 02:03:42;;;;;;;0.45;0.20;;;18.30;69.30;;;;;;5008627;28;20018;-83
2021/07/01 02:06:08;;;;;;;0.40;0.38;;;18.30;69.40;;;;;;5001513;28;20045;-83
2021/07/01 02:08:34;;;;;;;1.77;0.50;;;18.30;69.40;;;;;;5000050;28;20471;-83
2021/07/01 02:11:01;;;;;;;0.00;0.00;;;18.30;69.40;;;;;;5011755;28;20034;-83
2021/07/01 02:13:27;;;;;;;0.68;0.47;;;18.30;69.40;;;;;;5006282;28;20464;-85
2021/07/01 02:15:53;;;;;;;0.98;0.55;;;18.30;69.50;;;;;;5006941;28;20042;-82
2021/07/01 02:18:20;;;;;;;0.52;0.50;;;18.20;69.50;;;;;;4984965;28;20026;-83
2021/07/01 02:20:46;;;;;;;0.30;0.28;;;18.20;69.50;;;;;;4998340;28;20034;-82
2021/07/01 02:23:12;;;;;;;0.20;0.20;;;18.20;69.50;;;;;;4983518;28;20039;-84
2021/07/01 02:25:38;;;;;;;1.75;0.57;;;18.20;69.70;;;;;;4999837;28;20035;-84
2021/07/01 02:28:04;;;;;;;0.40;0.28;;;18.20;69.70;;;;;;5020002;28;20037;-85
2021/07/01 02:30:30;;;;;;;2.25;1.00;;;18.10;69.70;;;;;;5000121;28;20046;-83
2021/07/01 02:32:56;;;;;;;2.47;0.40;;;18.10;69.70;;;;;;4983640;28;20045;-84
2021/07/01 02:35:22;;;;;;;0.20;0.20;;;18.10;69.80;;;;;;4998283;28;20049;-84
2021/07/01 02:37:49;;;;;;;0.52;0.38;;;18.10;69.80;;;;;;4991756;28;20473;-85
2021/07/01 02:40:15;;;;;;;1.92;0.93;;;18.10;69.80;;;;;;5007775;28;20031;-85
2021/07/01 02:42:42;;;;;;;0.70;0.40;;;18.10;69.80;;;;;;4987912;28;20026;-84
2021/07/01 02:45:09;;;;;;;0.30;0.28;;;18.00;69.80;;;;;;4992601;28;20481;-83
2021/07/01 02:47:35;;;;;;;0.80;0.52;;;18.00;69.90;;;;;;5027235;28;20030;-85
2021/07/01 02:50:02;;;;;;;1.10;0.63;;;18.00;69.90;;;;;;5027372;28;20026;-81
2021/07/01 02:52:28;;;;;;;0.52;0.47;;;17.90;69.90;;;;;;5011777;28;20018;-85
2021/07/01 02:54:54;;;;;;;0.28;0.20;;;17.90;69.90;;;;;;5010947;28;20045;-85
2021/07/01 02:57:20;;;;;;;0.13;0.10;;;17.90;70.00;;;;;;5012572;28;20037;-83
2021/07/01 02:59:46;;;;;;;0.47;0.30;;;17.90;70.00;;;;;;5027174;28;20034;-85
2021/07/01 03:02:12;;;;;;;1.10;0.43;;;17.90;70.10;;;;;;5011442;28;20049;-84
2021/07/01 03:04:38;;;;;;;0.28;0.17;;;17.90;70.10;;;;;;5027200;28;20041;-84
2021/07/01 03:07:05;;;;;;;0.00;0.00;;;17.90;70.20;;;;;;5027089;28;20485;-84
2021/07/01 03:09:31;;;;;;;0.28;0.22;;;17.90;70.20;;;;;;4991585;28;20038;-86
2021/07/01 03:11:57;;;;;;;0.17;0.10;;;17.80;70.10;;;;;;5010419;28;20468;-85
2021/07/01 03:14:23;;;;;;;1.10;0.75;;;17.90;70.20;;;;;;5027052;28;20038;-85
2021/07/01 03:16:49;;;;;;;1.00;0.55;;;17.80;70.30;;;;;;5011311;28;20030;-84
2021/07/01 03:19:15;;;;;;;2.10;0.30;;;17.80;70.30;;;;;;5031244;28;20397;-85
2021/07/01 03:21:41;;;;;;;0.22;0.03;;;17.80;70.30;;;;;;5031330;28;20029;-85
2021/07/01 03:24:07;;;;;;;0.10;0.10;;;17.70;70.40;;;;;;5014095;28;20404;-85
2021/07/01 03:26:33;;;;;;;0.47;0.38;;;17.70;70.40;;;;;;5015821;28;20037;-84
2021/07/01 03:29:00;;;;;;;1.63;1.05;;;17.70;70.50;;;;;;5015319;28;20053;-86
2021/07/01 03:31:26;;;;;;;0.70;0.60;;;17.70;70.50;;;;;;5015238;28;20034;-85
2021/07/01 03:33:52;;;;;;;0.73;0.35;;;17.70;70.60;;;;;;5030763;28;20031;-82
2021/07/01 03:36:19;;;;;;;0.40;0.32;;;17.70;70.60;;;;;;5015641;28;20029;-84
2021/07/01 03:38:45;;;;;;;0.60;0.47;;;17.70;70.60;;;;;;5030481;28;20388;-85
2021/07/01 03:41:11;;;;;;;0.00;0.00;;;17.70;70.60;;;;;;5015251;28;20026;-84
2021/07/01 03:43:42;;;;;;;0.93;0.40;;;17.60;70.60;;;;;;5030585;28;20392;-85
2021/07/01 03:46:08;;;;;;;0.35;0.35;;;17.60;70.70;;;;;;5014932;28;20053;-86
2021/07/01 03:48:35;;;;;;;1.02;0.10;;;17.60;70.80;;;;;;5015649;28;20038;-86
2021/07/01 03:51:03;;;;;;;0.55;0.55;;;17.60;70.80;;;;;;5030062;28;20030;-84
2021/07/01 03:53:29;;;;;;;4.38;0.93;;;17.50;70.70;;;;;;5029952;28;20029;-86
2021/07/01 03:55:55;;;;;;;1.13;0.52;;;17.50;70.80;;;;;;5030370;28;20025;-86
2021/07/01 03:58:21;;;;;;;0.43;0.30;;;17.50;70.80;;;;;;5030393;28;20034;-85
2021/07/01 04:00:47;;;;;;;0.30;0.10;;;17.50;70.90;;;;;;5030077;28;20500;-86
2021/07/01 04:03:13;;;;;;;30.17;9.32;;;17.50;70.90;;;;;;5013984;28;20041;-86
2021/07/01 04:05:39;;;;;;;0.10;0.10;;;17.40;70.90;;;;;;5030125;28;20046;-86
2021/07/01 04:08:05;;;;;;;0.28;0.10;;;17.50;70.90;;;;;;5030142;28;20026;-85
2021/07/01 04:10:31;;;;;;;1.20;0.82;;;17.50;71.00;;;;;;5014853;28;20044;-87
2021/07/01 04:12:58;;;;;;;0.47;0.35;;;17.40;70.90;;;;;;5013965;28;20034;-86
2021/07/01 04:15:24;;;;;;;0.20;0.20;;;17.40;71.00;;;;;;5014622;28;20049;-85
2021/07/01 04:17:50;;;;;;;3.40;0.63;;;17.40;71.00;;;;;;5010210;28;20046;-85
2021/07/01 04:20:16;;;;;;;0.15;0.13;;;17.40;71.10;;;;;;5007245;28;20034;-86
2021/07/01 04:22:42;;;;;;;0.08;0.00;;;17.40;71.10;;;;;;5030090;28;20034;-85
2021/07/01 04:25:09;;;;;;;0.13;0.13;;;17.40;71.10;;;;;;5014456;28;20049;-86
2021/07/01 04:27:35;;;;;;;0.82;0.63;;;17.40;71.10;;;;;;4997739;28;20033;-86
2021/07/01 04:30:03;;;;;;;0.00;0.00;;;17.40;71.10;;;;;;5028248;28;20404;-85
2021/07/01 04:32:29;;;;;;;0.10;0.00;;;17.40;71.10;;;;;;5013301;28;20033;-85
2021/07/01 04:34:55;;;;;;;0.30;0.25;;;17.40;71.20;;;;;;5014410;28;20025;-86
2021/07/01 04:37:21;;;;;;;0.43;0.20;;;17.40;71.20;;;;;;5014376;28;20022;-87
2021/07/01 04:39:47;;;;;;;0.10;0.10;;;17.30;71.10;;;;;;5029889;28;20038;-86
2021/07/01 04:42:13;;;;;;;0.20;0.20;;;17.40;71.20;;;;;;5013246;28;20029;-86
2021/07/01 04:44:39;;;;;;;0.00;0.00;;;17.40;71.20;;;;;;5029361;28;20058;-85
2021/07/01 04:47:06;;;;;;;0.50;0.43;;;17.40;71.20;;;;;;5012378;28;20052;-85
2021/07/01 04:49:32;;;;;;;1.15;0.38;;;17.40;71.10;;;;;;5029357;28;20037;-84
2021/07/01 04:51:58;;;;;;;0.00;0.00;;;17.40;71.10;;;;;;5014352;28;20033;-86
2021/07/01 04:54:24;;;;;;;0.10;0.10;;;17.40;71.10;;;;;;5009832;28;20049;-85
2021/07/01 04:56:50;;;;;;;0.98;0.47;;;17.50;71.10;;;;;;5026459;28;20038;-85
2021/07/01 04:59:17;;;;;;;0.73;0.30;;;17.60;70.90;;;;;;5013936;28;20034;-86
2021/07/01 05:01:43;;;;;;;0.93;0.55;;;17.60;70.80;;;;;;5028224;28;20038;-85
2021/07/01 05:04:11;;;;;;;0.20;0.10;;;17.70;70.80;;;;;;5028903;28;20034;-85
2021/07/01 05:06:37;;;;;;;1.25;0.65;;;17.80;70.70;;;;;;4997167;28;20285;-86
2021/07/01 05:09:04;;;;;;;0.32;0.32;;;18.00;70.60;;;;;;5029067;28;20030;-86
2021/07/01 05:11:30;;;;;;;0.20;0.20;;;18.30;70.40;;;;;;5013742;28;20045;-85
2021/07/01 05:13:57;;;;;;;0.10;0.10;;;18.50;70.00;;;;;;5028985;28;20026;-86
2021/07/01 05:16:24;;;;;;;0.00;0.00;;;18.80;69.70;;;;;;5028249;28;20037;-86
2021/07/01 05:18:50;;;;;;;1.95;0.32;;;19.00;69.10;;;;;;5012137;28;20415;-87
2021/07/01 05:21:16;;;;;;;0.08;0.03;;;19.30;68.90;;;;;;5013991;28;20029;-85
2021/07/01 05:23:42;;;;;;;0.30;0.20;;;19.50;68.70;;;;;;5028562;28;20034;-85
2021/07/01 05:26:08;;;;;;;0.43;0.30;;;19.70;68.50;;;;;;5013417;28;20053;-85
2021/07/01 05:28:34;;;;;;;0.00;0.00;;;19.80;68.20;;;;;;5012366;28;20033;-85
2021/07/01 05:31:00;;;;;;;0.00;0.00;;;19.90;68.00;;;;;;5012322;28;20056;-83
2021/07/01 05:33:26;;;;;;;0.10;0.10;;;20.10;67.90;;;;;;5014265;28;20025;-84
2021/07/01 05:35:52;;;;;;;0.20;0.15;;;20.20;67.70;;;;;;5028523;28;20400;-86
2021/07/01 05:38:18;;;;;;;0.40;0.10;;;20.20;67.60;;;;;;5028387;28;20025;-86
2021/07/01 05:40:44;;;;;;;0.52;0.20;;;20.30;67.60;;;;;;5013002;28;20026;-85
2021/07/01 05:43:10;;;;;;;0.20;0.10;;;20.30;67.50;;;;;;5028481;28;20033;-86
2021/07/01 05:45:37;;;;;;;0.10;0.00;;;20.40;67.50;;;;;;5012722;28;20049;-85
2021/07/01 05:48:03;;;;;;;0.10;0.10;;;20.40;67.50;;;;;;5008021;28;20042;-85
2021/07/01 05:50:30;;;;;;;183.85;49.88;;;20.40;67.60;;;;;;5007328;28;20033;-86
2021/07/01 05:53:05;;;;;;;1.15;0.17;;;20.30;67.70;;;;;;5006070;28;20483;-85
2021/07/01 05:55:31;;;;;;;0.30;0.20;;;20.30;67.80;;;;;;5010559;28;20042;-86
2021/07/01 05:57:57;;;;;;;0.00;0.00;;;20.20;67.90;;;;;;5028230;28;20049;-85
2021/07/01 06:00:24;;;;;;;0.30;0.20;;;20.30;67.80;;;;;;4991723;28;20038;-84
2021/07/01 06:02:50;;;;;;;0.30;0.20;;;20.40;67.70;;;;;;5025285;28;20026;-85
2021/07/01 06:05:16;;;;;;;0.47;0.30;;;20.60;67.50;;;;;;5027881;28;20034;-84
2021/07/01 06:07:46;;;;;;;1.55;0.65;;;20.70;67.20;;;;;;5027981;28;20021;-84
2021/07/01 06:10:13;;;;;;;0.52;0.32;;;20.90;66.90;;;;;;5011037;28;20045;-85
2021/07/01 06:12:39;;;;;;;0.52;0.43;;;21.10;66.60;;;;;;4995771;28;20030;-85
2021/07/01 06:15:05;;;;;;;2.75;0.50;;;21.30;66.30;;;;;;5026996;28;20038;-84
2021/07/01 06:17:33;;;;;;;0.30;0.20;;;21.50;66.10;;;;;;5007304;28;20045;-83
2021/07/01 06:20:07;;;;;;;0.40;0.22;;;21.60;65.80;;;;;;5017929;28;20037;-85
2021/07/01 06:22:33;;;;;;;2.33;0.68;;;21.80;65.70;;;;;;5027749;28;20030;-85
2021/07/01 06:24:59;;;;;;;3.15;0.88;;;21.90;65.50;;;;;;5012538;28;20034;-85
2021/07/01 06:27:32;;;;;;;1.65;0.95;;;22.00;65.30;;;;;;5012832;28;20029;-85
2021/07/01 06:29:59;;;;;;;0.73;0.38;;;22.10;65.00;;;;;;5010748;28;20046;-84
2021/07/01 06:32:25;;;;;;;3.83;0.60;;;22.30;64.90;;;;;;5026968;28;20050;-84
2021/07/01 06:34:51;;;;;;;2.58;0.95;;;22.40;64.70;;;;;;5027512;28;20025;-85
2021/07/01 06:37:17;;;;;;;2.28;1.08;;;22.50;64.60;;;;;;5010441;28;20378;-84
2021/07/01 06:39:43;;;;;;;4.13;0.85;;;22.70;64.40;;;;;;5028264;28;20030;-85
2021/07/01 06:42:10;;;;;;;0.52;0.28;;;22.80;64.20;;;;;;5027655;28;20026;-84
2021/07/01 06:44:37;;;;;;;2.47;0.95;;;23.00;64.00;;;;;;5027052;28;20052;-86
2021/07/01 06:47:03;;;;;;;0.65;0.32;;;23.10;63.80;;;;;;5027148;28;20030;-84
2021/07/01 06:49:30;;;;;;;1.35;0.70;;;23.20;63.60;;;;;;5027632;28;20018;-85
2021/07/01 06:51:56;;;;;;;1.17;0.52;;;23.30;63.40;;;;;;5027119;28;20030;-85
2021/07/01 06:54:22;;;;;;;362.42;249.65;;;23.40;63.50;;;;;;5011356;28;20030;-84
2021/07/01 06:56:48;;;;;;;9.43;8.95;;;23.40;63.30;;;;;;5000342;28;20034;-84
2021/07/01 06:59:15;;;;;;;0.43;0.32;;;23.60;63.20;;;;;;5010723;28;20034;-85
2021/07/01 07:01:41;;;;;;;0.30;0.20;;;23.70;62.90;;;;;;5027052;28;20489;-84
2021/07/01 07:04:07;;;;;;;0.10;0.10;;;23.80;62.80;;;;;;5027461;28;20049;-85
2021/07/01 07:06:36;;;;;;;5.28;0.28;;;23.90;62.60;;;;;;5007997;28;20042;-86
2021/07/01 07:09:02;;;;;;;2.45;0.88;;;24.00;62.40;;;;;;5025518;28;20381;-85
2021/07/01 07:11:30;;;;;;;1.63;0.73;;;24.10;62.20;;;;;;5026986;28;20033;-85
2021/07/01 07:13:56;;;;;;;0.10;0.10;;;24.20;62.10;;;;;;5026617;28;20026;-86
2021/07/01 07:16:22;;;;;;;0.20;0.20;;;24.40;61.90;;;;;;5010222;28;20041;-85
2021/07/01 07:18:49;;;;;;;1.38;0.47;;;24.50;61.60;;;;;;5011939;28;20036;-87
2021/07/01 07:21:17;;;;;;;0.10;0.10;;;24.60;61.40;;;;;;4994818;28;20476;-85
2021/07/01 07:23:47;;;;;;;4.32;1.25;;;24.70;61.20;;;;;;5026841;28;20388;-86
2021/07/01 07:26:15;;;;;;;1.63;0.77;;;24.90;61.00;;;;;;5026461;28;20407;-86
2021/07/01 07:28:48;;;;;;;0.30;0.30;;;25.00;60.70;;;;;;5026556;28;20280;-85
2021/07/01 07:31:17;;;;;;;0.68;0.45;;;25.10;60.60;;;;;;4994330;28;20041;-85
2021/07/01 07:33:43;;;;;;;1315.05;571.05;;;25.20;60.60;;;;;;4991323;28;20038;-86
2021/07/01 07:36:09;;;;;;;132.23;87.75;;;25.20;60.40;;;;;;5026638;28;20038;-83
2021/07/01 07:38:35;;;;;;;45.63;43.45;;;25.30;60.20;;;;;;5007420;28;20038;-86
2021/07/01 07:41:01;;;;;;;34.35;32.75;;;25.50;59.90;;;;;;5017163;28;20033;-85
2021/07/01 07:43:27;;;;;;;30.80;29.30;;;25.70;59.80;;;;;;5026978;28;20018;-85
2021/07/01 07:45:56;;;;;;;30.73;29.13;;;25.60;59.50;;;;;;5009729;28;20045;-86
2021/07/01 07:48:23;;;;;;;36.53;34.83;;;25.50;59.70;;;;;;5010730;28;20022;-85
2021/07/01 07:50:53;;;;;;;29.35;27.95;;;25.40;59.80;;;;;;5034840;28;20040;-80
2021/07/01 07:53:29;;;;;;;36.20;34.40;;;25.30;59.90;;;;;;5052060;28;20044;-81
2021/07/01 07:56:01;;;;;;;46.30;44.10;;;25.30;60.00;;;;;;5044602;28;20391;-86
2021/07/01 07:58:29;;;;;;;1.58;1.45;;;25.20;60.10;;;;;;5026625;28;20029;-86
2021/07/01 08:00:55;;;;;;;1999.90;999.90;;;25.10;60.30;;;;;;5026015;28;20026;-85
2021/07/01 08:03:21;;;;;;;1999.90;999.90;;;25.20;60.30;;;;;;5011381;28;20030;-84
2021/07/01 08:05:47;;;;;;;1999.90;999.90;;;25.30;60.20;;;;;;5030274;28;20040;-85
2021/07/01 08:08:15;;;;;;;97.30;89.30;;;25.50;59.90;;;;;;5029899;28;20034;-85
2021/07/01 08:10:41;;;;;;;1999.90;999.90;;;25.80;59.70;;;;;;5029599;28;20390;-85
2021/07/01 08:13:08;;;;;;;1999.90;999.90;;;26.00;59.40;;;;;;5014022;28;20041;-86
2021/07/01 08:15:35;;;;;;;1999.90;999.90;;;26.20;59.00;;;;;;4996665;28;20045;-86
2021/07/01 08:18:04;;;;;;;437.48;169.20;;;26.40;59.00;;;;;;5029834;28;20022;-84
2021/07/01 08:20:31;;;;;;;1345.03;599.45;;;26.40;58.60;;;;;;5029479;28;20392;-86
2021/07/01 08:22:57;;;;;;;1999.90;999.90;;;26.50;58.60;;;;;;5029962;28;20026;-86
2021/07/01 08:25:24;;;;;;;1999.90;999.90;;;26.50;59.00;;;;;;5029646;28;20562;-86
2021/07/01 08:27:51;;;;;;;1503.43;750.40;;;26.40;58.30;;;;;;4997579;28;20022;-86
2021/07/01 08:30:19;;;;;;;1999.90;999.90;;;26.40;58.30;;;;;;4996662;28;20046;-86
2021/07/01 08:32:51;;;;;;;1999.90;999.90;;;26.60;58.20;;;;;;5014561;28;20033;-86
2021/07/01 08:35:21;;;;;;;1999.90;999.90;;;26.60;57.90;;;;;;5009763;28;20048;-86
2021/07/01 08:37:48;;;;;;;1999.90;999.90;;;26.70;57.90;;;;;;5017973;28;20026;-86
2021/07/01 08:40:15;;;;;;;1999.90;999.90;;;26.70;57.70;;;;;;5013318;28;20281;-86
2021/07/01 08:42:41;;;;;;;1999.90;999.90;;;26.80;57.60;;;;;;4997580;28;20369;-85
2021/07/01 08:45:09;;;;;;;1999.90;999.90;;;26.90;57.40;;;;;;5028872;28;20480;-86
2021/07/01 08:47:45;;;;;;;1999.90;999.90;;;27.10;57.20;;;;;;5029387;28;20045;-86
2021/07/01 08:50:14;;;;;;;1999.90;999.90;;;27.40;56.80;;;;;;5013964;28;20022;-87
2021/07/01 08:52:49;;;;;;;1999.90;999.90;;;27.40;56.60;;;;;;5014056;28;20037;-85
2021/07/01 08:55:18;;;;;;;1999.90;999.90;;;27.30;56.50;;;;;;5013457;28;20041;-86
2021/07/01 08:57:47;;;;;;;1999.90;999.90;;;27.10;56.60;;;;;;5026056;28;20041;-86
2021/07/01 09:00:14;;;;;;;1999.90;999.90;;;27.00;56.80;;;;;;5028608;28;20033;-86
2021/07/01 09:02:59;;;;;;;1999.90;999.90;;;27.00;56.90;;;;;;5029046;28;20046;-86
2021/07/01 09:05:27;;;;;;;1999.90;999.90;;;26.90;56.70;;;;;;5026891;28;20038;-86
2021/07/01 09:07:53;;;;;;;1999.90;999.90;;;26.80;56.80;;;;;;4996060;28;20481;-85
2021/07/01 09:10:20;;;;;;;1999.90;999.90;;;26.70;56.70;;;;;;5011601;28;20049;-86
2021/07/01 09:12:57;;;;;;;1999.90;999.90;;;26.70;56.70;;;;;;5029233;28;20022;-85
2021/07/01 09:15:23;;;;;;;1999.90;999.90;;;26.70;56.40;;;;;;5013158;28;20385;-86
2021/07/01 09:17:49;;;;;;;1999.90;999.90;;;26.80;56.30;;;;;;4979765;28;20496;-86
2021/07/01 09:20:20;;;;;;;1999.90;999.90;;;27.00;56.00;;;;;;4979549;28;20057;-87
2021/07/01 09:22:50;;;;;;;1999.90;999.90;;;27.10;55.50;;;;;;4994003;28;20042;-84
2021/07/01 09:25:17;;;;;;;1999.90;999.90;;;27.10;55.30;;;;;;4977184;28;20056;-87
2021/07/01 09:27:48;;;;;;;1999.90;999.90;;;27.10;55.10;;;;;;4989110;28;20049;-88
2021/07/01 09:30:15;;;;;;;1999.90;999.90;;;27.20;55.20;;;;;;4995405;28;20383;-87
2021/07/01 09:32:42;;;;;;;1999.90;999.90;;;27.20;54.80;;;;;;4980560;28;20050;-88
2021/07/01 09:35:11;;;;;;;1999.90;999.90;;;27.20;54.80;;;;;;4978563;28;20022;-86
2021/07/01 09:37:45;;;;;;;1999.90;999.90;;;27.30;54.80;;;;;;4990803;28;20030;-87
2021/07/01 09:40:14;;;;;;;1999.90;999.90;;;27.30;54.70;;;;;;5008114;28;20072;-87
2021/07/01 09:42:40;;;;;;;1999.90;999.90;;;27.40;54.80;;;;;;4993108;28;20030;-86
2021/07/01 09:45:11;;;;;;;1999.90;999.90;;;27.60;54.60;;;;;;4988714;28;20051;-86
2021/07/01 09:47:38;;;;;;;1999.90;999.90;;;27.90;54.20;;;;;;5003913;28;20039;-87
2021/07/01 09:50:06;;;;;;;1999.90;999.90;;;28.20;53.90;;;;;;4993406;28;20034;-84
2021/07/01 09:52:35;;;;;;;1999.90;999.90;;;28.20;53.50;;;;;;4993005;28;20030;-84
2021/07/01 09:55:01;;;;;;;1999.90;999.90;;;28.00;53.60;;;;;;4990492;28;20022;-88
2021/07/01 09:57:28;;;;;;;1999.90;999.90;;;27.70;53.80;;;;;;4993829;28;20079;-85
2021/07/01 09:59:58;;;;;;;1999.90;999.90;;;27.40;54.10;;;;;;4981138;28;20038;-86
2021/07/01 10:02:24;;;;;;;1999.90;999.90;;;27.40;54.10;;;;;;4997471;28;20041;-86
2021/07/01 10:04:50;;;;;;;1999.90;999.90;;;27.50;54.00;;;;;;5028024;28;20468;-87
2021/07/01 10:07:21;;;;;;;1999.90;999.90;;;27.60;53.60;;;;;;5027755;28;20037;-87
2021/07/01 10:10:11;;;;;;;1999.90;999.90;;;27.70;53.20;;;;;;5008870;28;20022;-86
2021/07/01 10:12:48;;;;;;;1999.90;999.90;;;27.70;52.90;;;;;;5013880;28;20497;-87
2021/07/01 10:15:23;;;;;;;1999.90;999.90;;;27.70;52.60;;;;;;5010738;28;20037;-86
2021/07/01 10:18:07;;;;;;;1999.90;999.90;;;27.70;52.60;;;;;;5027743;28;20377;-87
2021/07/01 10:20:38;;;;;;;1999.90;999.90;;;27.60;52.00;;;;;;5012113;28;20037;-86
2021/07/01 10:23:17;;;;;;;1999.90;999.90;;;27.50;52.20;;;;;;5027633;28;20041;-86
2021/07/01 10:25:43;;;;;;;1999.90;999.90;;;27.50;52.40;;;;;;5012498;28;20029;-86
2021/07/01 10:28:11;;;;;;;1999.90;999.90;;;27.50;52.40;;;;;;5010384;28;20049;-87
2021/07/01 10:30:37;;;;;;;1999.90;999.90;;;27.50;52.40;;;;;;5011170;28;20500;-86
2021/07/01 10:33:03;;;;;;;1999.90;999.90;;;27.60;52.40;;;;;;5008028;28;20041;-85
2021/07/01 10:35:34;;;;;;;1999.90;999.90;;;27.70;52.20;;;;;;5005296;28;20108;-87
2021/07/01 10:38:01;;;;;;;1999.90;999.90;;;28.00;52.10;;;;;;5026922;28;20030;-86
2021/07/01 10:40:27;;;;;;;1999.90;999.90;;;28.20;51.60;;;;;;5011197;28;20053;-86
2021/07/01 10:42:56;;;;;;;1999.90;999.90;;;28.20;51.40;;;;;;5027365;28;20029;-85
2021/07/01 10:45:23;;;;;;;1999.90;999.90;;;28.50;51.40;;;;;;5010816;28;20046;-85
2021/07/01 10:47:50;;;;;;;1999.90;999.90;;;28.70;51.10;;;;;;5027306;28;20357;-87
2021/07/01 10:50:19;;;;;;;1999.90;999.90;;;29.00;50.80;;;;;;5026796;28;20060;-86
2021/07/01 10:52:45;;;;;;;1999.90;999.90;;;29.30;50.40;;;;;;5012091;28;20030;-87
2021/07/01 10:55:12;;;;;;;1999.90;999.90;;;29.40;50.20;;;;;;5027210;28;20034;-87
2021/07/01 10:58:07;;;;;;;1999.90;999.90;;;29.20;50.10;;;;;;5011306;28;20397;-86
2021/07/01 11:00:41;;;;;;;1999.90;999.90;;;28.90;50.40;;;;;;5007537;28;20030;-86
2021/07/01 11:03:12;;;;;;;1999.90;999.90;;;28.80;50.70;;;;;;5027107;28;20038;-86
2021/07/01 11:05:38;;;;;;;;;;;28.60;51.00;;;;;;5027247;28;20030;-87
2021/07/01 11:08:04;;;;;;;1999.90;999.90;;;28.40;51.20;;;;;;5011851;28;20062;-86
2021/07/01 11:10:38;;;;;;;1999.90;999.90;;;28.30;51.30;;;;;;5027121;28;20029;-85
2021/07/01 11:13:08;;;;;;;1999.90;999.90;;;28.30;51.50;;;;;;5011850;28;20377;-87
2021/07/01 11:15:34;;;;;;;1999.90;999.90;;;28.40;51.50;;;;;;5010737;28;20037;-87
2021/07/01 11:18:10;;;;;;;1999.90;999.90;;;28.60;51.20;;;;;;5027124;28;20480;-86
2021/07/01 11:20:37;;;;;;;1999.90;999.90;;;28.80;50.60;;;;;;5026489;28;20049;-86
2021/07/01 11:23:03;;;;;;;1999.90;999.90;;;29.00;50.40;;;;;;5010589;28;20037;-85
2021/07/01 11:25:33;;;;;;;1999.90;999.90;;;29.10;50.00;;;;;;5012062;28;20037;-87
2021/07/01 11:28:26;;;;;;;1999.90;999.90;;;29.10;49.70;;;;;;5026788;28;20041;-86
2021/07/01 11:31:00;;;;;;;1999.90;999.90;;;29.00;49.40;;;;;;5008371;28;20065;-86
2021/07/01 11:33:27;;;;;;;1999.90;999.90;;;28.90;49.60;;;;;;5008397;28;20041;-87
2021/07/01 11:36:13;;;;;;;1999.90;999.90;;;29.10;49.60;;;;;;5026833;28;20030;-84
2021/07/01 11:38:39;;;;;;;1999.90;999.90;;;29.40;49.30;;;;;;5007968;28;20050;-87
2021/07/01 11:41:06;;;;;;;1999.90;999.90;;;29.70;48.90;;;;;;5005459;28;20044;-85
2021/07/01 11:43:36;;;;;;;1999.90;999.90;;;30.00;48.60;;;;;;5014501;28;20044;-86
2021/07/01 11:46:02;;;;;;;1999.90;999.90;;;30.10;48.20;;;;;;5013475;28;20030;-84
2021/07/01 11:48:30;;;;;;;1999.90;999.90;;;30.20;48.30;;;;;;5014276;28;20026;-86
2021/07/01 11:50:57;;;;;;;1999.90;999.90;;;30.10;48.30;;;;;;5030317;28;20034;-87
2021/07/01 11:53:23;;;;;;;1999.90;999.90;;;30.00;48.50;;;;;;5030462;28;20030;-85
2021/07/01 11:55:51;;;;;;;1999.90;999.90;;;29.90;48.60;;;;;;5030323;28;20423;-86
2021/07/01 11:58:17;;;;;;;1999.90;999.90;;;29.80;48.70;;;;;;5030206;28;20412;-85
2021/07/01 12:00:43;;;;;;;1999.90;999.90;;;29.70;48.60;;;;;;5015348;28;20392;-86
2021/07/01 12:03:10;;;;;;;1999.90;999.90;;;29.50;48.60;;;;;;5029665;28;20531;-86
2021/07/01 12:05:41;;;;;;;1999.90;999.90;;;29.20;48.60;;;;;;5030286;28;20037;-86
2021/07/01 12:08:08;;;;;;;1999.90;999.90;;;28.90;48.90;;;;;;5013293;28;20034;-86
2021/07/01 12:10:34;;;;;;;1999.90;999.90;;;28.70;49.10;;;;;;5013954;28;20030;-87
2021/07/01 12:13:00;;;;;;;1999.90;999.90;;;28.50;49.30;;;;;;5014126;28;20053;-86
2021/07/01 12:15:27;;;;;;;1999.90;999.90;;;28.30;49.30;;;;;;5013707;28;20033;-86
2021/07/01 12:18:06;;;;;;;1999.90;999.90;;;28.30;49.30;;;;;;5014512;28;20511;-87
2021/07/01 12:20:40;;;;;;;1999.90;999.90;;;28.50;49.10;;;;;;5029381;28;20495;-86
2021/07/01 12:23:12;;;;;;;1999.90;999.90;;;28.80;48.70;;;;;;5029958;28;20033;-86
2021/07/01 12:25:38;;;;;;;1999.90;999.90;;;29.10;48.40;;;;;;5014622;28;20030;-85
2021/07/01 12:28:05;;;;;;;1999.90;999.90;;;29.20;47.90;;;;;;5029962;28;20037;-85
2021/07/01 12:30:56;;;;;;;1999.90;999.90;;;29.20;47.80;;;;;;5014593;28;20042;-86